Time;durP1;ratioP1;P1;durP2;ratioP2;P2;SDS_P1;SDS_P2;PMS_P1;PMS_P2;Temp;Humidity;BMP_temperature;BMP_pressure;BME280_temperature;BME280_humidity;BME280_pressure;Samples;Min_cycle;Max_cycle;Signal;HPM_P1;HPM_P2
2022/03/08 00:01:51;;;;;;;70.40;39.88;;;0.20;2201.60;;;;;;5013502;28;20473;-76
2022/03/08 00:04:17;;;;;;;49.17;27.33;;;0.20;2201.60;;;;;;5013441;28;20261;-76
2022/03/08 00:06:43;;;;;;;60.55;32.78;;;0.10;2201.60;;;;;;5012103;28;20050;-75
2022/03/08 00:09:09;;;;;;;57.58;32.92;;;0.10;2201.60;;;;;;5011182;28;20488;-75
2022/03/08 00:11:35;;;;;;;70.18;39.05;;;0.20;2201.60;;;;;;5013416;28;20033;-75
2022/03/08 00:14:00;;;;;;;61.13;36.25;;;0.20;2201.60;;;;;;5013560;28;20113;-76
2022/03/08 00:16:26;;;;;;;48.67;28.85;;;0.20;2201.60;;;;;;5013175;28;20440;-76
2022/03/08 00:18:52;;;;;;;64.90;40.20;;;0.10;2201.60;;;;;;5013406;28;20022;-76
2022/03/08 00:21:18;;;;;;;65.35;36.47;;;0.10;2201.60;;;;;;5012187;28;20381;-76
2022/03/08 00:23:44;;;;;;;78.03;44.05;;;0.10;2201.60;;;;;;5013600;28;20394;-76
2022/03/08 00:26:10;;;;;;;70.13;39.85;;;0.10;2201.60;;;;;;5012037;28;20486;-75
2022/03/08 00:28:36;;;;;;;79.57;45.58;;;0.00;2201.60;;;;;;5013355;28;20054;-75
2022/03/08 00:31:02;;;;;;;78.43;40.28;;;0.10;2201.60;;;;;;5012973;28;20105;-75
2022/03/08 00:33:28;;;;;;;79.25;45.15;;;0.00;2201.60;;;;;;5012004;28;20033;-75
2022/03/08 00:35:54;;;;;;;80.28;47.30;;;0.00;2201.60;;;;;;5012934;28;20052;-76
2022/03/08 00:38:20;;;;;;;72.15;41.72;;;0.00;2201.60;;;;;;5013196;28;20025;-75
2022/03/08 00:40:46;;;;;;;86.10;51.90;;;0.00;2201.60;;;;;;5013361;28;20038;-76
2022/03/08 00:43:12;;;;;;;77.82;45.17;;;0.10;2201.60;;;;;;5011848;28;20033;-75
2022/03/08 00:45:39;;;;;;;64.65;34.15;;;0.10;2201.60;;;;;;5013077;28;20033;-75
2022/03/08 00:48:05;;;;;;;72.60;36.92;;;0.00;2201.60;;;;;;5013236;28;20076;-75
2022/03/08 00:50:31;;;;;;;76.90;40.58;;;0.00;2201.60;;;;;;5012718;28;20029;-76
2022/03/08 00:52:58;;;;;;;68.18;37.15;;;0.00;2201.60;;;;;;5011611;28;20617;-75
2022/03/08 00:55:26;;;;;;;62.67;33.08;;;12.90;2201.60;;;;;;5011604;28;20058;-76
2022/03/08 00:57:54;;;;;;;57.78;29.40;;;13.00;2201.60;;;;;;5011379;28;20026;-75
2022/03/08 01:00:22;;;;;;;66.22;34.70;;;13.00;2201.60;;;;;;5011527;28;20120;-76
2022/03/08 01:02:48;;;;;;;60.22;31.75;;;13.10;2201.60;;;;;;5012763;28;20033;-76
2022/03/08 01:05:13;;;;;;;74.97;40.20;;;13.10;2201.60;;;;;;5012228;28;20042;-75
2022/03/08 01:07:39;;;;;;;61.00;28.17;;;13.10;2201.60;;;;;;5012773;28;20449;-76
2022/03/08 01:10:09;;;;;;;74.63;41.13;;;13.10;2201.60;;;;;;5011372;28;20022;-76
2022/03/08 01:12:35;;;;;;;72.38;38.05;;;13.10;2201.60;;;;;;5012592;28;20029;-75
2022/03/08 01:15:05;;;;;;;80.43;40.60;;;13.00;2201.60;;;;;;5012481;28;20096;-75
2022/03/08 01:17:31;;;;;;;54.55;28.52;;;13.00;2201.60;;;;;;5012505;28;20100;-75
2022/03/08 01:19:57;;;;;;;64.72;35.92;;;13.00;2201.60;;;;;;5012446;28;20504;-75
2022/03/08 01:22:23;;;;;;;47.40;23.15;;;13.00;2201.60;;;;;;5011883;28;20022;-75
2022/03/08 01:24:49;;;;;;;68.03;37.05;;;13.10;2201.60;;;;;;5011122;28;20061;-75
2022/03/08 01:27:15;;;;;;;61.05;30.27;;;13.10;2201.60;;;;;;5010896;28;20405;-75
2022/03/08 01:29:41;;;;;;;57.92;30.40;;;13.10;2201.60;;;;;;5011069;28;20036;-76
2022/03/08 01:32:07;;;;;;;64.80;35.00;;;13.20;2201.60;;;;;;5012299;28;20108;-76
2022/03/08 01:34:34;;;;;;;63.97;35.72;;;13.10;2201.60;;;;;;5010750;28;20022;-76
2022/03/08 01:37:01;;;;;;;82.63;42.75;;;13.10;2201.60;;;;;;5011919;28;20028;-76
2022/03/08 01:39:26;;;;;;;66.80;37.92;;;13.10;2201.60;;;;;;5011090;28;20070;-75
2022/03/08 01:41:52;;;;;;;80.43;38.53;;;13.10;2201.60;;;;;;5011910;28;20030;-76
2022/03/08 01:44:19;;;;;;;61.05;35.15;;;13.10;2201.60;;;;;;5010882;28;20037;-76
2022/03/08 01:46:45;;;;;;;57.72;32.38;;;13.00;2201.60;;;;;;5010923;28;20032;-76
2022/03/08 01:49:11;;;;;;;69.15;41.03;;;13.00;2201.60;;;;;;5012383;28;20033;-76
2022/03/08 01:51:39;;;;;;;76.75;38.70;;;13.00;2201.60;;;;;;5011836;28;20049;-76
2022/03/08 01:54:06;;;;;;;63.08;38.00;;;13.00;2201.60;;;;;;5010721;28;20030;-75
2022/03/08 01:56:33;;;;;;;76.05;41.00;;;12.90;2201.60;;;;;;5010516;28;20049;-75
2022/03/08 01:58:59;;;;;;;62.97;31.05;;;13.00;2201.60;;;;;;5012245;28;20076;-76
2022/03/08 02:01:26;;;;;;;53.50;30.27;;;13.00;2201.60;;;;;;5011984;28;20033;-76
2022/03/08 02:03:52;;;;;;;76.05;42.25;;;13.10;2201.60;;;;;;5010681;28;20033;-76
2022/03/08 02:06:17;;;;;;;74.60;42.97;;;13.00;2201.60;;;;;;5011686;28;20180;-76
2022/03/08 02:08:44;;;;;;;80.43;47.30;;;13.00;2201.60;;;;;;5011204;28;20105;-76
2022/03/08 02:11:10;;;;;;;81.55;44.42;;;13.00;2201.60;;;;;;5011688;28;20025;-77
2022/03/08 02:13:38;;;;;;;77.65;43.90;;;13.00;2201.60;;;;;;5011993;28;20022;-77
2022/03/08 02:16:05;;;;;;;78.60;44.60;;;13.00;2201.60;;;;;;5011830;28;20105;-76
2022/03/08 02:18:31;;;;;;;78.60;47.10;;;13.00;2201.60;;;;;;5012134;28;20068;-76
2022/03/08 02:21:03;;;;;;;84.85;45.83;;;13.00;2201.60;;;;;;5010540;28;20037;-76
2022/03/08 02:23:29;;;;;;;83.97;47.92;;;13.00;2201.60;;;;;;5010649;28;20061;-76
2022/03/08 02:25:55;;;;;;;79.90;42.45;;;13.00;2201.60;;;;;;5011298;28;20124;-77
2022/03/08 02:28:22;;;;;;;84.05;45.92;;;13.00;2201.60;;;;;;5010243;28;20061;-76
2022/03/08 02:30:48;;;;;;;82.70;44.05;;;13.10;2201.60;;;;;;5010532;28;20033;-76
2022/03/08 02:33:14;;;;;;;83.28;45.92;;;13.20;2201.60;;;;;;5014512;28;20022;-77
2022/03/08 02:35:39;;;;;;;85.50;46.38;;;13.10;2201.60;;;;;;5015857;28;20401;-76
2022/03/08 02:38:06;;;;;;;77.40;45.30;;;13.10;2201.60;;;;;;5014095;28;20104;-77
2022/03/08 02:40:36;;;;;;;80.53;41.75;;;13.20;2201.60;;;;;;5014021;28;20022;-76
2022/03/08 02:43:03;;;;;;;86.93;46.35;;;13.10;2201.60;;;;;;5014035;28;20033;-76
2022/03/08 02:45:29;;;;;;;83.10;45.63;;;13.10;2201.60;;;;;;5014915;28;20030;-76
2022/03/08 02:47:54;;;;;;;77.93;38.03;;;13.10;2201.60;;;;;;5013540;28;20076;-76
2022/03/08 02:50:21;;;;;;;91.55;50.72;;;13.20;2201.60;;;;;;5013908;28;20026;-76
2022/03/08 02:52:51;;;;;;;91.93;47.33;;;13.10;2201.60;;;;;;5015239;28;20030;-76
2022/03/08 02:55:19;;;;;;;84.32;47.80;;;13.00;2201.60;;;;;;5014912;28;20037;-76
2022/03/08 02:57:45;;;;;;;76.43;45.85;;;13.00;2201.60;;;;;;5013981;28;20053;-75
2022/03/08 03:00:13;;;;;;;82.28;47.03;;;13.00;2201.60;;;;;;5014941;28;20068;-75
2022/03/08 03:02:40;;;;;;;82.60;44.72;;;13.10;2201.60;;;;;;5014747;28;20028;-76
2022/03/08 03:05:06;;;;;;;87.90;47.97;;;13.10;2201.60;;;;;;5014875;28;20040;-76
2022/03/08 03:07:33;;;;;;;84.82;42.97;;;13.10;2201.60;;;;;;5014921;28;20056;-76
2022/03/08 03:09:59;;;;;;;80.68;40.50;;;13.20;2201.60;;;;;;5013432;28;20117;-76
2022/03/08 03:12:24;;;;;;;83.07;47.00;;;13.30;2201.60;;;;;;5014570;28;20113;-76
2022/03/08 03:14:50;;;;;;;89.32;40.63;;;13.20;2201.60;;;;;;5013413;28;20080;-76
2022/03/08 03:17:19;;;;;;;85.75;46.78;;;13.20;2201.60;;;;;;5014097;28;20030;-76
2022/03/08 03:19:45;;;;;;;85.03;46.67;;;13.20;2201.60;;;;;;5013365;28;20122;-75
2022/03/08 03:22:10;;;;;;;82.72;45.53;;;13.10;2201.60;;;;;;5013258;28;20053;-76
2022/03/08 03:24:36;;;;;;;73.53;41.67;;;13.20;2201.60;;;;;;5013293;28;20038;-76
2022/03/08 03:27:02;;;;;;;83.20;45.15;;;13.30;2201.60;;;;;;5014518;28;20037;-76
2022/03/08 03:29:28;;;;;;;85.80;43.28;;;13.30;2201.60;;;;;;5014633;28;20469;-76
2022/03/08 03:31:53;;;;;;;76.93;38.17;;;13.30;2201.60;;;;;;5014294;28;20030;-76
2022/03/08 03:34:19;;;;;;;84.70;42.97;;;13.30;2201.60;;;;;;5013039;28;20025;-76
2022/03/08 03:36:45;;;;;;;93.90;49.65;;;13.30;2201.60;;;;;;5014224;28;20052;-76
2022/03/08 03:39:10;;;;;;;92.30;49.92;;;13.30;2201.60;;;;;;5012696;28;20026;-76
2022/03/08 03:41:36;;;;;;;65.50;34.13;;;13.20;2201.60;;;;;;5014075;28;20096;-76
2022/03/08 03:44:02;;;;;;;87.32;48.42;;;13.30;2201.60;;;;;;5012638;28;20107;-76
2022/03/08 03:46:28;;;;;;;84.68;43.72;;;13.40;2201.60;;;;;;5013845;28;20393;-76
2022/03/08 03:48:54;;;;;;;92.93;50.38;;;13.40;2201.60;;;;;;5012764;28;20022;-76
2022/03/08 03:51:19;;;;;;;93.82;51.08;;;13.40;2201.60;;;;;;5013725;28;20032;-76
2022/03/08 03:53:45;;;;;;;86.13;47.92;;;13.40;2201.60;;;;;;5014019;28;20036;-77
2022/03/08 03:56:11;;;;;;;85.03;45.67;;;13.40;2201.60;;;;;;5012642;28;20113;-75
2022/03/08 03:58:37;;;;;;;79.30;39.55;;;13.40;2201.60;;;;;;5013883;28;20033;-76
2022/03/08 04:01:04;;;;;;;81.85;41.35;;;13.40;2201.60;;;;;;5013755;28;20026;-77
2022/03/08 04:03:30;;;;;;;59.30;31.98;;;13.50;2201.60;;;;;;5012578;28;20465;-75
2022/03/08 04:05:55;;;;;;;85.57;45.40;;;13.60;2201.60;;;;;;5013402;28;20045;-76
2022/03/08 04:08:21;;;;;;;85.15;46.67;;;13.50;2201.60;;;;;;5013735;28;20037;-76
2022/03/08 04:10:51;;;;;;;91.00;44.33;;;13.40;2201.60;;;;;;5012340;28;20474;-76
2022/03/08 04:13:17;;;;;;;95.28;45.42;;;13.50;2201.60;;;;;;5012002;28;20033;-75
2022/03/08 04:15:44;;;;;;;95.28;50.67;;;13.40;2201.60;;;;;;5013199;28;20026;-76
2022/03/08 04:18:10;;;;;;;100.20;46.53;;;13.40;2201.60;;;;;;5013468;28;20029;-76
2022/03/08 04:20:37;;;;;;;84.32;41.78;;;13.50;2201.60;;;;;;5013365;28;20050;-76
2022/03/08 04:23:03;;;;;;;97.75;51.97;;;13.50;2201.60;;;;;;5011996;28;20397;-77
2022/03/08 04:25:29;;;;;;;64.90;34.80;;;13.50;2201.60;;;;;;5012515;28;20127;-76
2022/03/08 04:27:55;;;;;;;72.07;36.92;;;13.50;2201.60;;;;;;5013076;28;20393;-76
2022/03/08 04:30:20;;;;;;;101.20;47.20;;;13.50;2201.60;;;;;;5012968;28;20029;-76
2022/03/08 04:32:46;;;;;;;94.38;50.53;;;13.40;2201.60;;;;;;5013274;28;20041;-76
2022/03/08 04:35:12;;;;;;;85.68;44.25;;;13.40;2201.60;;;;;;5011853;28;20037;-77
2022/03/08 04:37:38;;;;;;;86.95;43.00;;;13.40;2201.60;;;;;;5013080;28;20076;-76
2022/03/08 04:40:05;;;;;;;79.10;44.65;;;13.50;2201.60;;;;;;5013124;28;20033;-76
2022/03/08 04:42:31;;;;;;;84.55;46.22;;;13.40;2201.60;;;;;;5011357;28;20030;-77
2022/03/08 04:44:57;;;;;;;81.82;45.35;;;13.40;2201.60;;;;;;5012623;28;20481;-77
2022/03/08 04:47:22;;;;;;;83.50;46.05;;;13.30;2201.60;;;;;;5012803;28;20029;-77
2022/03/08 04:49:48;;;;;;;41.90;20.40;;;13.30;2201.60;;;;;;5013047;28;20511;-76
2022/03/08 04:52:14;;;;;;;83.78;41.42;;;13.50;2201.60;;;;;;5011649;28;20461;-76
2022/03/08 04:54:39;;;;;;;50.25;25.80;;;13.40;2201.60;;;;;;5012619;28;20053;-76
2022/03/08 04:57:05;;;;;;;65.95;36.78;;;13.50;2201.60;;;;;;5012577;28;20057;-76
2022/03/08 04:59:31;;;;;;;70.88;34.45;;;13.50;2201.60;;;;;;5012873;28;20469;-76
2022/03/08 05:01:57;;;;;;;74.22;41.55;;;13.50;2201.60;;;;;;5009943;28;20030;-76
2022/03/08 05:04:23;;;;;;;77.28;42.70;;;13.50;2201.60;;;;;;5011538;28;20428;-76
2022/03/08 05:06:48;;;;;;;71.95;40.60;;;13.40;2201.60;;;;;;5011554;28;20073;-76
2022/03/08 05:09:14;;;;;;;71.32;37.78;;;13.40;2201.60;;;;;;5010041;28;20053;-76
2022/03/08 05:11:40;;;;;;;48.55;22.63;;;13.40;2201.60;;;;;;5012821;28;20018;-77
2022/03/08 05:14:06;;;;;;;70.78;42.00;;;13.50;2201.60;;;;;;5012094;28;20030;-77
2022/03/08 05:16:32;;;;;;;67.95;37.17;;;13.40;2201.60;;;;;;5012446;28;20104;-77
2022/03/08 05:18:58;;;;;;;59.00;34.95;;;13.40;2201.60;;;;;;5011084;28;20449;-77
2022/03/08 05:21:24;;;;;;;61.45;38.45;;;13.30;2201.60;;;;;;5012510;28;20030;-77
2022/03/08 05:23:49;;;;;;;57.92;32.70;;;13.40;2201.60;;;;;;5012299;28;20465;-76
2022/03/08 05:26:15;;;;;;;56.85;35.22;;;13.40;2201.60;;;;;;5012526;28;20037;-76
2022/03/08 05:28:46;;;;;;;59.80;35.22;;;13.40;2201.60;;;;;;5010880;28;20462;-77
2022/03/08 05:31:13;;;;;;;61.90;36.10;;;13.30;2201.60;;;;;;5010955;28;20540;-76
2022/03/08 05:33:39;;;;;;;65.70;39.88;;;13.30;2201.60;;;;;;5012490;28;20028;-75
2022/03/08 05:36:05;;;;;;;59.70;33.28;;;13.30;2201.60;;;;;;5010579;28;20040;-76
2022/03/08 05:38:31;;;;;;;62.70;34.33;;;13.30;2201.60;;;;;;5012264;28;20026;-76
2022/03/08 05:40:57;;;;;;;72.70;39.97;;;13.30;2201.60;;;;;;5012138;28;20022;-76
2022/03/08 05:43:23;;;;;;;63.20;36.20;;;13.30;2201.60;;;;;;5011980;28;20030;-75
2022/03/08 05:45:49;;;;;;;77.20;41.33;;;13.20;2201.60;;;;;;5012069;28;20401;-79
2022/03/08 05:48:15;;;;;;;74.75;41.20;;;13.20;2201.60;;;;;;5011856;28;20022;-77
2022/03/08 05:50:40;;;;;;;75.45;45.47;;;13.20;2201.60;;;;;;5011871;28;20469;-77
2022/03/08 05:53:06;;;;;;;78.70;40.88;;;13.10;2201.60;;;;;;5010769;28;20033;-76
2022/03/08 05:55:42;;;;;;;49.92;26.85;;;13.10;2201.60;;;;;;5007717;28;20505;-80
2022/03/08 05:58:08;;;;;;;57.13;32.22;;;13.30;2201.60;;;;;;5009703;28;20033;-78
2022/03/08 06:00:33;;;;;;;60.10;35.05;;;13.30;2201.60;;;;;;5009778;28;20030;-86
2022/03/08 06:02:59;;;;;;;66.32;34.53;;;13.20;2201.60;;;;;;4997412;28;20026;-76
2022/03/08 06:05:25;;;;;;;49.00;28.42;;;13.30;2201.60;;;;;;5008751;28;20030;-76
2022/03/08 06:07:51;;;;;;;61.17;38.65;;;13.30;2201.60;;;;;;5013544;28;20046;-76
2022/03/08 06:10:16;;;;;;;40.63;24.17;;;13.20;2201.60;;;;;;5015009;28;20101;-76
2022/03/08 06:12:44;;;;;;;45.92;25.30;;;13.30;2201.60;;;;;;5014748;28;20017;-76
2022/03/08 06:15:10;;;;;;;41.25;23.70;;;13.40;2201.60;;;;;;5015279;28;20022;-76
2022/03/08 06:17:36;;;;;;;37.58;21.25;;;13.40;2201.60;;;;;;4994844;28;20386;-77
2022/03/08 06:20:02;;;;;;;57.55;32.38;;;13.40;2201.60;;;;;;5014637;28;20026;-75
2022/03/08 06:22:27;;;;;;;34.72;20.80;;;13.20;2201.60;;;;;;5012491;28;20121;-76
2022/03/08 06:24:53;;;;;;;43.28;25.15;;;13.40;2201.60;;;;;;5014608;28;20108;-77
2022/03/08 06:27:19;;;;;;;46.70;25.40;;;13.30;2201.60;;;;;;5013260;28;20509;-76
2022/03/08 06:29:44;;;;;;;39.85;24.90;;;13.30;2201.60;;;;;;5014875;28;20028;-77
2022/03/08 06:32:10;;;;;;;45.17;28.75;;;13.20;2201.60;;;;;;5012866;28;20032;-77
2022/03/08 06:34:36;;;;;;;42.33;22.77;;;13.10;2201.60;;;;;;5010439;28;20076;-77
2022/03/08 06:37:02;;;;;;;44.45;23.00;;;13.20;2201.60;;;;;;5011746;28;20085;-77
2022/03/08 06:39:28;;;;;;;44.40;26.25;;;13.20;2201.60;;;;;;5012816;28;20022;-77
2022/03/08 06:41:53;;;;;;;55.83;35.63;;;13.10;2201.60;;;;;;5012660;28;20041;-76
2022/03/08 06:44:19;;;;;;;38.28;22.33;;;12.90;2201.60;;;;;;5012529;28;20068;-76
2022/03/08 06:46:46;;;;;;;49.60;30.85;;;12.90;2201.60;;;;;;5011053;28;20022;-76
2022/03/08 06:49:12;;;;;;;51.97;29.92;;;0.20;2201.60;;;;;;5013124;28;20026;-76
2022/03/08 06:51:38;;;;;;;52.45;29.15;;;0.00;2201.60;;;;;;5012002;28;20374;-76
2022/03/08 06:54:08;;;;;;;53.05;29.13;;;0.00;2201.60;;;;;;5012679;28;20018;-76
2022/03/08 06:56:34;;;;;;;59.95;36.20;;;0.10;2201.60;;;;;;5014231;28;20096;-77
2022/03/08 06:59:01;;;;;;;65.90;37.20;;;0.20;2201.60;;;;;;5014202;28;20033;-77
2022/03/08 07:01:27;;;;;;;70.70;44.15;;;0.50;2201.60;;;;;;5012631;28;20026;-75
2022/03/08 07:03:52;;;;;;;72.40;39.38;;;25.60;2201.60;;;;;;5013804;28;20124;-76
2022/03/08 07:06:18;;;;;;;67.53;40.92;;;0.90;2201.60;;;;;;5013899;28;20053;-76
2022/03/08 07:08:44;;;;;;;58.28;36.55;;;25.80;2201.60;;;;;;5013898;28;20072;-76
2022/03/08 07:11:10;;;;;;;48.53;31.73;;;25.90;2201.60;;;;;;5012066;28;20030;-77
2022/03/08 07:13:36;;;;;;;57.80;37.10;;;25.90;2201.60;;;;;;5013153;28;20105;-76
2022/03/08 07:16:01;;;;;;;40.85;25.33;;;25.70;2201.60;;;;;;5012602;28;20105;-77
2022/03/08 07:18:27;;;;;;;49.75;27.95;;;0.70;2201.60;;;;;;5007970;28;20109;-77
2022/03/08 07:20:53;;;;;;;56.33;33.67;;;0.70;2201.60;;;;;;5013561;28;20062;-76
2022/03/08 07:23:19;;;;;;;39.58;26.73;;;0.80;2201.60;;;;;;5011389;28;20076;-77
2022/03/08 07:25:45;;;;;;;49.85;29.05;;;0.70;2201.60;;;;;;5010451;28;20041;-77
2022/03/08 07:28:11;;;;;;;43.35;25.90;;;0.60;2201.60;;;;;;5013045;28;20030;-79
2022/03/08 07:30:37;;;;;;;47.08;30.58;;;0.50;2201.60;;;;;;5013061;28;20024;-77
2022/03/08 07:33:02;;;;;;;55.55;33.50;;;0.80;2201.60;;;;;;5014373;28;20072;-75
2022/03/08 07:35:28;;;;;;;56.05;34.35;;;25.60;2201.60;;;;;;5013804;28;20030;-75
2022/03/08 07:37:54;;;;;;;46.70;26.42;;;25.80;2201.60;;;;;;5014178;28;20030;-77
2022/03/08 07:40:20;;;;;;;44.33;26.40;;;25.60;2201.60;;;;;;5013744;28;20022;-76
2022/03/08 07:42:46;;;;;;;67.38;38.92;;;25.60;2201.60;;;;;;5012390;28;20030;-77
2022/03/08 07:45:11;;;;;;;41.47;27.77;;;25.80;2201.60;;;;;;5012557;28;20069;-75
2022/03/08 07:47:37;;;;;;;60.67;36.28;;;25.80;2201.60;;;;;;5014000;28;20030;-75
2022/03/08 07:50:04;;;;;;;41.33;23.77;;;26.10;2201.60;;;;;;5012708;28;20030;-75
2022/03/08 07:52:30;;;;;;;44.60;28.15;;;25.60;2201.60;;;;;;5012475;28;20057;-77
2022/03/08 07:54:56;;;;;;;55.03;34.40;;;0.90;2201.60;;;;;;5013631;28;20072;-77
2022/03/08 07:57:22;;;;;;;45.88;27.50;;;0.70;2201.60;;;;;;5013773;28;20030;-75
2022/03/08 07:59:47;;;;;;;43.03;26.85;;;25.60;2201.60;;;;;;5013531;28;20025;-75
2022/03/08 08:02:13;;;;;;;45.25;25.15;;;0.90;2201.60;;;;;;5012450;28;20480;-75
2022/03/08 08:04:39;;;;;;;49.63;30.67;;;0.80;2201.60;;;;;;5013620;28;20038;-76
2022/03/08 08:07:05;;;;;;;42.75;26.38;;;25.70;2201.60;;;;;;5013144;28;20058;-77
2022/03/08 08:09:30;;;;;;;51.88;32.45;;;25.70;2201.60;;;;;;5012130;28;20050;-76
2022/03/08 08:11:56;;;;;;;42.50;24.55;;;25.90;2201.60;;;;;;5013585;28;20121;-75
2022/03/08 08:14:22;;;;;;;56.80;30.58;;;26.20;2201.60;;;;;;5013518;28;20033;-75
2022/03/08 08:16:48;;;;;;;44.35;27.70;;;25.80;2201.60;;;;;;5013435;28;20461;-76
2022/03/08 08:19:13;;;;;;;42.33;26.25;;;26.10;2201.60;;;;;;5013534;28;20053;-77
2022/03/08 08:21:40;;;;;;;49.05;31.27;;;26.20;2201.60;;;;;;5012098;28;20030;-75
2022/03/08 08:24:06;;;;;;;30.55;20.38;;;26.50;2201.60;;;;;;5012143;28;20133;-76
2022/03/08 08:26:32;;;;;;;27.73;17.92;;;26.00;2201.60;;;;;;5012088;28;20105;-77
2022/03/08 08:28:58;;;;;;;45.78;27.48;;;25.90;2201.60;;;;;;5013427;28;20429;-76
2022/03/08 08:31:24;;;;;;;44.75;27.88;;;26.00;2201.60;;;;;;5012448;28;20022;-77
2022/03/08 08:33:52;;;;;;;36.03;20.10;;;26.20;2201.60;;;;;;5011863;28;20076;-77
2022/03/08 08:36:18;;;;;;;29.77;17.00;;;25.80;2201.60;;;;;;5011809;28;20034;-76
2022/03/08 08:38:44;;;;;;;32.33;19.65;;;25.70;2201.60;;;;;;5012831;28;20400;-77
2022/03/08 08:41:10;;;;;;;34.90;23.00;;;26.10;2201.60;;;;;;5011763;28;20026;-77
2022/03/08 08:43:35;;;;;;;37.60;22.02;;;26.10;2201.60;;;;;;5011822;28;20076;-76
2022/03/08 08:46:01;;;;;;;26.23;15.10;;;26.00;2201.60;;;;;;5012893;28;20401;-76
2022/03/08 08:48:27;;;;;;;41.17;25.55;;;25.90;2201.60;;;;;;5013177;28;20029;-77
2022/03/08 08:50:53;;;;;;;34.55;19.45;;;26.10;2201.60;;;;;;5012413;28;20018;-76
2022/03/08 08:53:19;;;;;;;54.95;30.38;;;25.80;2201.60;;;;;;5011344;28;20466;-76
2022/03/08 08:55:45;;;;;;;37.05;22.60;;;26.00;2201.60;;;;;;5011314;28;20026;-76
2022/03/08 08:58:11;;;;;;;37.40;23.67;;;26.20;2201.60;;;;;;5012697;28;20026;-76
2022/03/08 09:00:37;;;;;;;38.25;23.73;;;26.20;2201.60;;;;;;5012782;28;20362;-75
2022/03/08 09:03:04;;;;;;;30.83;18.10;;;26.50;2201.60;;;;;;5011189;28;20033;-75
2022/03/08 09:05:30;;;;;;;36.85;24.63;;;26.30;2201.60;;;;;;5011156;28;20042;-76
2022/03/08 09:07:55;;;;;;;44.65;26.25;;;26.40;2201.60;;;;;;5012628;28;20057;-75
2022/03/08 09:10:23;;;;;;;36.58;21.27;;;26.50;2201.60;;;;;;5011134;28;20117;-76
2022/03/08 09:12:51;;;;;;;32.42;16.70;;;26.50;2201.60;;;;;;5012221;28;20026;-79
2022/03/08 09:15:18;;;;;;;35.47;20.48;;;26.30;2201.60;;;;;;5011171;28;20037;-76
2022/03/08 09:17:44;;;;;;;37.83;22.92;;;26.30;2201.60;;;;;;5011129;28;20057;-76
2022/03/08 09:20:11;;;;;;;32.53;21.30;;;51.30;2227.20;;;;;;5011114;28;20037;-75
2022/03/08 09:22:37;;;;;;;35.70;22.08;;;26.50;2201.60;;;;;;5012196;28;20030;-77
2022/03/08 09:25:03;;;;;;;28.63;15.50;;;26.50;2201.60;;;;;;5012196;28;20045;-77
2022/03/08 09:27:30;;;;;;;40.63;26.60;;;26.30;2201.60;;;;;;5010739;28;20036;-79
2022/03/08 09:29:56;;;;;;;43.47;25.67;;;51.40;2227.20;;;;;;5010837;28;20025;-79
2022/03/08 09:32:23;;;;;;;39.30;22.17;;;51.50;2227.20;;;;;;5011768;28;20053;-76
2022/03/08 09:34:49;;;;;;;39.65;20.85;;;51.20;2227.20;;;;;;5010813;28;20068;-76
2022/03/08 09:37:15;;;;;;;34.30;20.70;;;26.50;2201.60;;;;;;5012351;28;20053;-79
2022/03/08 09:39:41;;;;;;;43.47;25.52;;;26.30;2201.60;;;;;;5012122;28;20026;-76
2022/03/08 09:42:07;;;;;;;39.20;26.33;;;51.20;2227.20;;;;;;5008088;28;20033;-76
2022/03/08 09:44:33;;;;;;;40.60;25.60;;;51.20;2227.20;;;;;;5009427;28;20717;-77
2022/03/08 09:46:59;;;;;;;41.47;26.17;;;51.50;2227.20;;;;;;5010594;28;20053;-79
2022/03/08 09:49:25;;;;;;;32.00;16.45;;;51.70;2227.20;;;;;;5011741;28;20018;-78
2022/03/08 09:51:53;;;;;;;40.13;26.55;;;51.30;2227.20;;;;;;5010758;28;20056;-76
2022/03/08 09:54:19;;;;;;;39.75;19.23;;;51.60;2227.20;;;;;;5010588;28;20473;-75
2022/03/08 09:56:45;;;;;;;25.17;14.27;;;51.70;2227.20;;;;;;5010665;28;20033;-79
2022/03/08 09:59:15;;;;;;;26.80;16.75;;;51.30;2227.20;;;;;;5012182;28;20485;-76
2022/03/08 10:01:41;;;;;;;40.55;24.73;;;51.30;2227.20;;;;;;5011670;28;20030;-76
2022/03/08 10:04:07;;;;;;;42.42;26.85;;;51.80;2227.20;;;;;;5011843;28;20068;-75
2022/03/08 10:06:41;;;;;;;32.85;21.23;;;76.80;2227.20;;;;;;5011728;28;20057;-76
2022/03/08 10:09:14;;;;;;;35.78;21.92;;;51.90;2227.20;;;;;;5012113;28;20511;-76
2022/03/08 10:11:40;;;;;;;48.67;32.65;;;76.80;2227.20;;;;;;5011545;28;20030;-75
2022/03/08 10:14:11;;;;;;;48.03;29.60;;;77.10;2227.20;;;;;;5010886;28;21185;-76
2022/03/08 10:16:44;;;;;;;44.90;27.58;;;77.40;2227.20;;;;;;5011240;28;20034;-76
2022/03/08 10:19:11;;;;;;;33.72;21.10;;;77.00;2227.20;;;;;;5011618;28;20034;-76
2022/03/08 10:21:42;;;;;;;32.22;17.27;;;52.10;2227.20;;;;;;5011590;28;20477;-75
2022/03/08 10:24:19;;;;;;;33.08;19.85;;;51.70;2227.20;;;;;;5011233;28;20378;-78
2022/03/08 10:27:10;;;;;;;38.90;23.45;;;51.40;2227.20;;;;;;5010125;28;20033;-76
2022/03/08 10:29:39;;;;;;;31.08;19.42;;;51.70;2227.20;;;;;;5010942;28;20014;-77
2022/03/08 10:32:09;;;;;;;24.48;15.07;;;51.50;2227.20;;;;;;5011506;28;20018;-77
2022/03/08 10:34:37;;;;;;;27.30;16.98;;;51.70;2227.20;;;;;;5009524;28;20042;-76
2022/03/08 10:37:17;;;;;;;36.95;24.92;;;51.50;2227.20;;;;;;5011805;28;20531;-76
2022/03/08 10:39:54;;;;;;;35.20;18.60;;;51.40;2227.20;;;;;;5011638;28;20041;-76
2022/03/08 10:42:28;;;;;;;27.92;17.05;;;51.50;2227.20;;;;;;5011256;28;20121;-76
2022/03/08 10:45:03;;;;;;;26.95;16.60;;;51.60;2227.20;;;;;;5011125;28;20076;-76
2022/03/08 10:47:57;;;;;;;40.80;24.90;;;51.80;2227.20;;;;;;5010511;28;20026;-76
2022/03/08 10:50:25;;;;;;;30.30;16.00;;;52.10;2227.20;;;;;;4991094;28;20042;-77
2022/03/08 10:52:54;;;;;;;28.52;17.38;;;51.60;2227.20;;;;;;4992490;28;20034;-76
2022/03/08 10:55:25;;;;;;;41.63;21.13;;;51.60;2227.20;;;;;;5012433;28;20037;-77
2022/03/08 10:57:54;;;;;;;28.98;17.10;;;51.70;2227.20;;;;;;5013478;28;20030;-77
2022/03/08 11:00:33;;;;;;;41.08;20.58;;;51.40;2227.20;;;;;;5013466;28;20072;-76
2022/03/08 11:03:01;;;;;;;39.85;26.45;;;51.50;2227.20;;;;;;5012806;28;20053;-76
2022/03/08 11:05:31;;;;;;;29.02;19.35;;;52.00;2227.20;;;;;;5014290;28;20397;-77
2022/03/08 11:07:58;;;;;;;40.45;23.80;;;52.00;2227.20;;;;;;5014338;28;20108;-76
2022/03/08 11:10:25;;;;;;;29.55;18.65;;;76.90;2227.20;;;;;;5014032;28;20025;-76
2022/03/08 11:12:52;;;;;;;30.17;16.60;;;76.90;2227.20;;;;;;5014472;28;20022;-76
2022/03/08 11:15:20;;;;;;;22.02;14.23;;;76.80;2227.20;;;;;;5014643;28;20022;-76
2022/03/08 11:17:48;;;;;;;39.47;22.42;;;52.00;2227.20;;;;;;5013112;28;20030;-77
2022/03/08 11:20:16;;;;;;;47.55;28.15;;;52.10;2227.20;;;;;;5013901;28;20029;-77
2022/03/08 11:22:43;;;;;;;38.85;24.08;;;77.00;2227.20;;;;;;5014492;28;20038;-75
2022/03/08 11:25:12;;;;;;;31.98;19.75;;;76.80;2227.20;;;;;;5012576;28;20038;-78
2022/03/08 11:27:43;;;;;;;31.63;20.25;;;76.80;2227.20;;;;;;5013982;28;20030;-76
2022/03/08 11:30:22;;;;;;;35.20;20.30;;;76.90;2227.20;;;;;;5013982;28;20030;-76
2022/03/08 11:33:06;;;;;;;29.88;19.92;;;52.10;2227.20;;;;;;5012617;28;20121;-77
2022/03/08 11:35:35;;;;;;;37.90;23.88;;;77.40;2227.20;;;;;;5013870;28;20033;-76
2022/03/08 11:38:01;;;;;;;32.00;17.77;;;77.30;2227.20;;;;;;5012684;28;20026;-77
2022/03/08 11:40:30;;;;;;;30.35;19.77;;;76.80;2227.20;;;;;;5013720;28;20545;-77
2022/03/08 11:43:04;;;;;;;29.67;15.73;;;76.80;2227.20;;;;;;5013757;28;20168;-78
2022/03/08 11:45:31;;;;;;;30.65;19.48;;;52.10;2227.20;;;;;;5013599;28;20396;-76
2022/03/08 11:48:05;;;;;;;31.88;19.27;;;77.00;2227.20;;;;;;5013746;28;20034;-76
2022/03/08 11:50:39;;;;;;;44.78;23.63;;;76.80;2227.20;;;;;;5014171;28;20036;-79
2022/03/08 11:53:05;;;;;;;;;;;77.30;2227.20;;;;;;5014379;28;20370;-75
2022/03/08 11:55:56;;;;;;;33.33;18.65;;;77.00;2176.00;;;;;;5014004;28;20461;-76
2022/03/08 11:58:41;;;;;;;29.33;16.42;;;77.30;2176.00;;;;;;5013365;28;20044;-75
2022/03/08 12:01:07;;;;;;;37.85;22.60;;;77.20;2099.20;;;;;;5011951;28;20030;-76
2022/03/08 12:03:32;;;;;;;32.78;21.35;;;77.70;2124.80;;;;;;5013325;28;20396;-77
2022/03/08 12:05:58;;;;;;;32.47;22.35;;;77.20;2073.60;;;;;;5012207;28;20488;-75
2022/03/08 12:08:29;;;;;;;32.28;18.77;;;77.30;2124.80;;;;;;5013674;28;20026;-76